createdAt,value
2022-10-17T00:03:26.697Z,14.2
2022-10-17T00:13:26.740Z,14.1
2022-10-17T00:23:26.663Z,14.1
2022-10-17T00:33:26.663Z,14
2022-10-17T00:43:26.676Z,13.8
2022-10-17T00:53:26.618Z,13.7
2022-10-17T01:03:26.579Z,13.5
2022-10-17T01:13:26.613Z,13.4
2022-10-17T01:23:26.532Z,13.3
2022-10-17T01:33:26.543Z,13.1
2022-10-17T01:43:26.571Z,12.9
2022-10-17T01:53:26.528Z,12.7
2022-10-17T02:03:26.472Z,12.6
2022-10-17T02:13:26.495Z,12.5
2022-10-17T02:23:26.437Z,12.4
2022-10-17T02:33:26.424Z,12.3
2022-10-17T02:43:26.432Z,12.1
2022-10-17T03:03:26.376Z,11.9
2022-10-17T03:13:26.391Z,11.8
2022-10-17T03:23:26.343Z,11.8
2022-10-17T03:33:26.326Z,11.8
2022-10-17T03:43:26.315Z,11.7
2022-10-17T03:53:26.351Z,11.6
2022-10-17T04:03:26.282Z,11.6
2022-10-17T04:13:26.240Z,11.5
2022-10-17T04:23:26.274Z,11.4
2022-10-17T04:33:26.266Z,11.3
2022-10-17T04:43:26.199Z,11.4
2022-10-17T04:53:26.217Z,11.3
2022-10-17T05:03:26.181Z,11.3
2022-10-17T05:13:26.178Z,11.2
2022-10-17T05:23:26.184Z,11.2
2022-10-17T05:33:26.112Z,11.1
2022-10-17T05:43:26.104Z,11.2
2022-10-17T05:53:26.146Z,11.1
2022-10-17T06:03:26.064Z,11.1
2022-10-17T06:13:26.063Z,11
2022-10-17T06:23:26.075Z,11.2
2022-10-17T06:33:26.011Z,11.2
2022-10-17T06:43:27.897Z,11.3
2022-10-17T06:53:26.010Z,11.5
2022-10-17T07:03:25.970Z,11.7
2022-10-17T07:13:25.958Z,12.1
2022-10-17T07:23:25.965Z,12.4
2022-10-17T07:33:25.936Z,12.8
2022-10-17T07:43:25.903Z,13.3
2022-10-17T07:53:25.919Z,13.8
2022-10-17T08:03:25.865Z,14.4
2022-10-17T08:13:25.866Z,15
2022-10-17T08:23:25.856Z,15.5
2022-10-17T08:33:25.806Z,15.9
2022-10-17T08:43:25.829Z,16.2
2022-10-17T08:53:25.848Z,16.5
2022-10-17T09:03:25.763Z,16.8
2022-10-17T09:13:25.853Z,17.1
2022-10-17T09:23:25.777Z,17.7
2022-10-17T09:33:35.269Z,18
2022-10-17T09:43:25.716Z,19.6
2022-10-17T09:53:25.683Z,22.1
2022-10-17T10:03:25.632Z,24.3
2022-10-17T10:13:25.624Z,25.9
2022-10-17T10:23:25.602Z,26.9
2022-10-17T10:33:25.567Z,28
2022-10-17T10:43:25.563Z,28.4
2022-10-17T10:53:25.533Z,29.2
2022-10-17T11:03:25.493Z,30.2
2022-10-17T11:13:25.508Z,30.7
2022-10-17T11:23:25.503Z,30.9
2022-10-17T11:33:25.410Z,31.2
2022-10-17T11:43:25.412Z,31.6
2022-10-17T11:53:25.386Z,31.7
2022-10-17T12:03:25.342Z,32
2022-10-17T12:13:25.366Z,30.9
2022-10-17T12:23:26.093Z,30.1
2022-10-17T12:33:25.280Z,30.9
2022-10-17T12:43:25.287Z,31.9
2022-10-17T12:53:25.225Z,32.9
2022-10-17T13:03:25.211Z,33.5
2022-10-17T13:13:25.236Z,33.3
2022-10-17T13:23:25.202Z,33.5
2022-10-17T13:33:25.180Z,33.3
2022-10-17T13:43:25.164Z,33.9
2022-10-17T13:53:25.111Z,33.7
2022-10-17T14:03:32.554Z,33.2
2022-10-17T14:13:25.119Z,32.9
2022-10-17T14:23:25.149Z,32.2
2022-10-17T14:33:25.031Z,31.6
2022-10-17T14:43:25.017Z,31.9
2022-10-17T14:53:24.963Z,31.9
2022-10-17T15:03:24.969Z,31.6
2022-10-17T15:13:29.673Z,31.1
2022-10-17T15:23:24.901Z,30.3
2022-10-17T15:33:24.951Z,29.6
2022-10-17T15:43:24.919Z,28.8
2022-10-17T15:53:24.866Z,27.3
2022-10-17T16:03:24.863Z,26.2
2022-10-17T16:13:24.871Z,25.3
2022-10-17T16:23:24.797Z,24.5
2022-10-17T16:33:24.804Z,23.9
2022-10-17T16:43:24.796Z,23.4
2022-10-17T16:53:24.744Z,22.9
2022-10-17T17:03:24.710Z,22.5
2022-10-17T17:13:24.752Z,22.3
2022-10-17T17:23:24.700Z,22
2022-10-17T17:33:24.672Z,21.9
2022-10-17T17:43:24.630Z,21.7
2022-10-17T17:53:24.625Z,21.3
2022-10-17T18:13:24.562Z,20.9
2022-10-17T18:23:24.603Z,20.6
2022-10-17T18:33:24.510Z,20.5
2022-10-17T18:43:24.509Z,20.3
2022-10-17T18:53:24.518Z,20.1
2022-10-17T19:03:24.465Z,19.8
2022-10-17T19:13:24.449Z,19.7
2022-10-17T19:23:24.455Z,19.5
2022-10-17T19:33:24.450Z,19.4
2022-10-17T19:43:24.388Z,19.4
2022-10-17T19:53:24.412Z,19.2
2022-10-17T20:03:24.370Z,19
2022-10-17T20:13:24.343Z,18.9
2022-10-17T20:23:24.338Z,18.8
2022-10-17T20:33:26.320Z,18.7
2022-10-17T20:43:24.265Z,18.4
2022-10-17T20:53:36.448Z,18.4
2022-10-17T21:03:24.214Z,18.2
2022-10-17T21:13:24.201Z,18
2022-10-17T21:23:24.209Z,18
2022-10-17T21:33:24.160Z,18
2022-10-17T21:43:24.143Z,17.8
2022-10-17T21:53:24.161Z,17.8
2022-10-17T22:03:24.092Z,17.6
2022-10-17T22:13:24.119Z,17.6
2022-10-17T22:23:24.100Z,17.4
2022-10-17T22:33:24.041Z,17.4
2022-10-17T22:43:24.061Z,17.3
2022-10-17T22:53:24.096Z,17
2022-10-17T23:03:23.972Z,16.8
2022-10-17T23:13:23.996Z,16.5
2022-10-17T23:23:23.985Z,16.3
2022-10-17T23:33:23.906Z,16.1
2022-10-17T23:43:23.968Z,16
2022-10-17T23:53:23.921Z,15.7
